This is the latest recevied weather packets stored in our database for station/object SA6BET-2. If no packets are shown the sender has not sent any weather packets the latest 10 day(s).
| Time | Temp. | Humidity | Pressure | Rain* | Wind** | Luminosity | Snow |
|---|---|---|---|---|---|---|---|
| 1788114132 | 26.67° C | 100% | 1018.2 hPa | - | - | - | - |
| 1788113232 | 27.22° C | 100% | 1018.2 hPa | - | - | - | - |
| 1788112332 | 27.22° C | 100% | 1018.1 hPa | - | - | - | - |
| 1788111432 | 28.33° C | 100% | 1017.9 hPa | - | - | - | - |
| 1788110531 | 28.89° C | 100% | 1018 hPa | - | - | - | - |
| 1788109630 | 29.44° C | 100% | 1017.9 hPa | - | - | - | - |
| 1788108730 | 30° C | 100% | 1017.8 hPa | - | - | - | - |
| 1788107829 | 30° C | 100% | 1017.8 hPa | - | - | - | - |
| 1788106927 | 31.11° C | 100% | 1017.9 hPa | - | - | - | - |
| 1788106027 | 32.22° C | 100% | 1017.8 hPa | - | - | - | - |
| 1788105127 | 30.56° C | 100% | 1018 hPa | - | - | - | - |
| 1788104236 | 32.78° C | 100% | 1018 hPa | - | - | - | - |
| 1788103335 | 31.67° C | 100% | 1018.2 hPa | - | - | - | - |
| 1788102434 | 31.11° C | 100% | 1018.4 hPa | - | - | - | - |
| 1788101534 | 32.78° C | 100% | 1018.5 hPa | - | - | - | - |
| 1788100634 | 33.33° C | 100% | 1018.7 hPa | - | - | - | - |
| 1788099734 | 32.22° C | 100% | 1018.9 hPa | - | - | - | - |
| 1788098834 | 35° C | 100% | 1019 hPa | - | - | - | - |
| 1788097934 | 35° C | 100% | 1019.1 hPa | - | - | - | - |
| 1788097033 | 33.89° C | 100% | 1019.4 hPa | - | - | - | - |
| 1788096133 | 33.33° C | 100% | 1019.5 hPa | - | - | - | - |
| 1788095233 | 33.89° C | 100% | 1019.6 hPa | - | - | - | - |
| 1788094333 | 32.78° C | 100% | 1019.8 hPa | - | - | - | - |
| 1788093433 | 32.78° C | 100% | 1020 hPa | - | - | - | - |
| 1788092533 | 32.22° C | 100% | 1020.2 hPa | - | - | - | - |
* Rain since midnight (hover to see other rain measurements)
** Current wind speed in m/s (hover to see current wind gust speed)